Time;durP1;ratioP1;P1;durP2;ratioP2;P2;SDS_P1;SDS_P2;PMS_P1;PMS_P2;Temp;Humidity;BMP_temperature;BMP_pressure;BME280_temperature;BME280_humidity;BME280_pressure;Samples;Min_cycle;Max_cycle;Signal;HPM_P1;HPM_P2
2022/05/24 00:00:37;;;;;;;0.00;0.00;;;;;;;;;;1738500;28;20696;-75
2022/05/24 00:01:28;;;;;;;0.00;0.00;;;;;;;;;;1739267;28;20218;-75
2022/05/24 00:02:20;;;;;;;0.00;0.00;;;;;;;;;;1739981;28;20688;-75
2022/05/24 00:03:11;;;;;;;0.00;0.00;;;;;;;;;;1739731;28;20214;-75
2022/05/24 00:04:04;;;;;;;0.00;0.00;;;;;;;;;;1740070;28;20509;-75
2022/05/24 00:04:55;;;;;;;0.00;0.00;;;;;;;;;;1740385;28;20202;-75
2022/05/24 00:05:48;;;;;;;0.00;0.00;;;;;;;;;;1739018;28;20238;-75
2022/05/24 00:06:39;;;;;;;0.00;0.00;;;;;;;;;;1733758;28;20216;-75
2022/05/24 00:07:32;;;;;;;0.00;0.00;;;;;;;;;;1726802;28;20296;-75
2022/05/24 00:08:23;;;;;;;0.00;0.00;;;;;;;;;;1735343;28;20203;-75
2022/05/24 00:09:15;;;;;;;0.00;0.00;;;;;;;;;;1742005;28;20375;-75
2022/05/24 00:10:08;;;;;;;0.00;0.00;;;;;;;;;;1739303;28;20568;-75
2022/05/24 00:11:02;;;;;;;0.00;0.00;;;;;;;;;;1740579;28;20684;-75
2022/05/24 00:11:53;;;;;;;0.00;0.00;;;;;;;;;;1739130;28;20652;-75
2022/05/24 00:12:46;;;;;;;0.00;0.00;;;;;;;;;;1739613;28;20289;-75
2022/05/24 00:13:37;;;;;;;0.00;0.00;;;;;;;;;;1740511;28;20206;-75
2022/05/24 00:15:38;;;;;;;0.00;0.00;;;;;;;;;;1715654;28;20229;-75
2022/05/24 00:16:29;;;;;;;0.00;0.00;;;;;;;;;;1731076;28;21280;-75
2022/05/24 00:17:20;;;;;;;0.00;0.00;;;;;;;;;;1739524;28;20203;-75
2022/05/24 00:18:14;;;;;;;0.00;0.00;;;;;;;;;;1738896;28;20280;-75
2022/05/24 00:19:05;;;;;;;0.00;0.00;;;;;;;;;;1739655;28;20198;-75
2022/05/24 00:19:57;;;;;;;0.00;0.00;;;;;;;;;;1738480;28;20195;-75
2022/05/24 00:20:50;;;;;;;0.00;0.00;;;;;;;;;;1738546;28;20214;-75
2022/05/24 00:21:42;;;;;;;0.00;0.00;;;;;;;;;;1742289;28;20202;-75
2022/05/24 00:22:33;;;;;;;0.00;0.00;;;;;;;;;;1740086;28;20684;-75
2022/05/24 00:23:27;;;;;;;0.00;0.00;;;;;;;;;;1740002;28;20198;-75
2022/05/24 00:24:18;;;;;;;0.00;0.00;;;;;;;;;;1741602;28;20522;-75
2022/05/24 00:25:11;;;;;;;0.00;0.00;;;;;;;;;;1738696;28;20319;-75
2022/05/24 00:26:05;;;;;;;0.00;0.00;;;;;;;;;;1739358;28;20234;-75
2022/05/24 00:26:58;;;;;;;0.00;0.00;;;;;;;;;;1741764;28;20202;-75
2022/05/24 00:27:49;;;;;;;0.00;0.00;;;;;;;;;;1739377;28;20637;-75
2022/05/24 00:28:42;;;;;;;0.00;0.00;;;;;;;;;;1739735;28;20207;-75
2022/05/24 00:29:33;;;;;;;0.00;0.00;;;;;;;;;;1739322;28;20207;-75
2022/05/24 00:30:31;;;;;;;0.00;0.00;;;;;;;;;;1737329;28;20207;-75
2022/05/24 00:31:22;;;;;;;0.00;0.00;;;;;;;;;;1739022;28;20203;-75
2022/05/24 00:32:15;;;;;;;0.00;0.00;;;;;;;;;;1738886;28;20209;-75
2022/05/24 00:33:06;;;;;;;0.00;0.00;;;;;;;;;;1739475;28;20245;-75
2022/05/24 00:33:58;;;;;;;0.00;0.00;;;;;;;;;;1741609;28;20206;-75
2022/05/24 00:34:49;;;;;;;0.00;0.00;;;;;;;;;;1741297;28;20648;-75
2022/05/24 00:35:42;;;;;;;0.00;0.00;;;;;;;;;;1739715;28;20241;-75
2022/05/24 00:36:33;;;;;;;0.00;0.00;;;;;;;;;;1738856;28;20214;-75
2022/05/24 00:37:26;;;;;;;0.00;0.00;;;;;;;;;;1739347;28;20541;-75
2022/05/24 00:38:20;;;;;;;0.00;0.00;;;;;;;;;;1738169;28;20234;-75
2022/05/24 00:39:12;;;;;;;0.00;0.00;;;;;;;;;;1734100;28;20622;-75
2022/05/24 00:40:04;;;;;;;0.00;0.00;;;;;;;;;;1738979;28;20216;-75
2022/05/24 00:42:29;;;;;;;0.00;0.00;;;;;;;;;;1744322;28;20360;-75
2022/05/24 00:43:25;;;;;;;0.00;0.00;;;;;;;;;;1746095;28;20235;-75
2022/05/24 00:44:23;;;;;;;0.00;0.00;;;;;;;;;;1745681;28;20198;-75
2022/05/24 00:45:23;;;;;;;0.00;0.00;;;;;;;;;;1735366;28;20403;-75
2022/05/24 00:46:22;;;;;;;0.00;0.00;;;;;;;;;;1747691;28;20267;-75
2022/05/24 00:47:29;;;;;;;0.00;0.00;;;;;;;;;;1741977;28;20629;-75
2022/05/24 00:48:24;;;;;;;0.00;0.00;;;;;;;;;;1748582;28;20639;-75
2022/05/24 00:49:22;;;;;;;0.00;0.00;;;;;;;;;;1745809;28;20206;-75
2022/05/24 00:50:16;;;;;;;0.00;0.00;;;;;;;;;;1746172;28;20193;-75
2022/05/24 00:51:10;;;;;;;0.00;0.00;;;;;;;;;;1745137;28;20579;-75
2022/05/24 00:52:03;;;;;;;0.00;0.00;;;;;;;;;;1746380;28;20256;-75
2022/05/24 00:52:57;;;;;;;0.00;0.00;;;;;;;;;;1746012;28;20194;-75
2022/05/24 00:53:51;;;;;;;0.00;0.00;;;;;;;;;;1748867;28;20229;-75
2022/05/24 00:54:44;;;;;;;0.00;0.00;;;;;;;;;;1747652;28;20225;-74
2022/05/24 00:55:38;;;;;;;0.00;0.00;;;;;;;;;;1741631;28;20253;-74
2022/05/24 00:56:51;;;;;;;0.00;0.00;;;;;;;;;;1745341;28;20234;-74
2022/05/24 00:57:48;;;;;;;0.00;0.00;;;;;;;;;;1736858;28;20543;-74
2022/05/24 00:58:41;;;;;;;0.00;0.00;;;;;;;;;;1748083;28;20574;-74
2022/05/24 00:59:35;;;;;;;0.00;0.00;;;;;;;;;;1745807;28;20202;-74
2022/05/24 01:00:29;;;;;;;0.00;0.00;;;;;;;;;;1744386;28;20217;-74
2022/05/24 01:01:29;;;;;;;0.00;0.00;;;;;;;;;;1745611;28;20198;-74
2022/05/24 01:02:20;;;;;;;0.00;0.00;;;;;;;;;;1746148;28;20655;-74
2022/05/24 01:03:13;;;;;;;0.00;0.00;;;;;;;;;;1745259;28;20568;-74
2022/05/24 01:04:05;;;;;;;0.00;0.00;;;;;;;;;;1746421;28;20667;-74
2022/05/24 01:04:58;;;;;;;0.00;0.00;;;;;;;;;;1746065;28;20202;-74
2022/05/24 01:05:49;;;;;;;0.00;0.00;;;;;;;;;;1744758;28;20245;-74
2022/05/24 01:06:41;;;;;;;0.00;0.00;;;;;;;;;;1745533;28;20210;-74
2022/05/24 01:07:33;;;;;;;0.00;0.00;;;;;;;;;;1746900;28;20241;-74
2022/05/24 01:08:25;;;;;;;0.00;0.00;;;;;;;;;;1745281;28;20234;-74
2022/05/24 01:09:18;;;;;;;0.00;0.00;;;;;;;;;;1745912;28;20221;-74
2022/05/24 01:10:13;;;;;;;0.00;0.00;;;;;;;;;;1744648;28;20202;-74
2022/05/24 01:11:05;;;;;;;0.00;0.00;;;;;;;;;;1744950;28;20234;-74
2022/05/24 01:11:59;;;;;;;0.00;0.00;;;;;;;;;;1747759;28;20610;-74
2022/05/24 01:12:53;;;;;;;0.00;0.00;;;;;;;;;;1745954;28;20475;-75
2022/05/24 01:13:46;;;;;;;0.00;0.00;;;;;;;;;;1746274;28;20453;-75
2022/05/24 01:14:37;;;;;;;0.00;0.00;;;;;;;;;;1747223;28;20670;-74
2022/05/24 01:15:33;;;;;;;0.00;0.00;;;;;;;;;;1746707;28;20240;-74
2022/05/24 01:16:24;;;;;;;0.00;0.00;;;;;;;;;;1747820;28;20210;-74
2022/05/24 01:17:16;;;;;;;0.00;0.00;;;;;;;;;;1747978;28;20206;-74
2022/05/24 01:18:07;;;;;;;0.00;0.00;;;;;;;;;;1745483;28;20213;-74
2022/05/24 01:19:04;;;;;;;0.00;0.00;;;;;;;;;;1746570;28;20198;-74
2022/05/24 01:19:56;;;;;;;0.00;0.00;;;;;;;;;;1745991;28;20194;-74
2022/05/24 01:20:51;;;;;;;0.00;0.00;;;;;;;;;;1743863;28;20291;-75
2022/05/24 01:21:42;;;;;;;0.00;0.00;;;;;;;;;;1747918;28;20210;-75
2022/05/24 01:22:49;;;;;;;0.00;0.00;;;;;;;;;;1746108;28;20289;-75
2022/05/24 01:23:43;;;;;;;0.00;0.00;;;;;;;;;;1744042;28;20540;-75
2022/05/24 01:24:40;;;;;;;0.00;0.00;;;;;;;;;;1745514;28;20221;-75
2022/05/24 01:25:35;;;;;;;0.00;0.00;;;;;;;;;;1742491;28;20198;-75
2022/05/24 01:26:33;;;;;;;0.00;0.00;;;;;;;;;;1745585;28;20210;-75
2022/05/24 01:27:24;;;;;;;0.00;0.00;;;;;;;;;;1746090;28;20651;-75
2022/05/24 01:28:18;;;;;;;0.00;0.00;;;;;;;;;;1745653;28;20271;-75
2022/05/24 01:29:10;;;;;;;0.00;0.00;;;;;;;;;;1740263;28;20735;-75
2022/05/24 01:30:02;;;;;;;0.00;0.00;;;;;;;;;;1745717;28;20198;-75
2022/05/24 01:30:54;;;;;;;0.00;0.00;;;;;;;;;;1744247;28;20244;-75
2022/05/24 01:36:27;;;;;;;0.00;0.00;;;;;;;;;;1745991;28;20280;-75
2022/05/24 01:37:19;;;;;;;0.00;0.00;;;;;;;;;;1747513;28;20209;-75
2022/05/24 01:38:12;;;;;;;0.00;0.00;;;;;;;;;;1745470;28;20256;-75
2022/05/24 01:39:05;;;;;;;0.00;0.00;;;;;;;;;;1745548;28;20206;-75
2022/05/24 01:39:58;;;;;;;0.00;0.00;;;;;;;;;;1745278;28;20215;-75
2022/05/24 01:40:50;;;;;;;0.00;0.00;;;;;;;;;;1744736;28;20241;-75
2022/05/24 01:41:44;;;;;;;0.00;0.00;;;;;;;;;;1746072;28;20213;-75
2022/05/24 01:42:36;;;;;;;0.00;0.00;;;;;;;;;;1747772;28;20613;-75
2022/05/24 01:43:28;;;;;;;0.00;0.00;;;;;;;;;;1747912;28;20220;-75
2022/05/24 01:44:24;;;;;;;0.00;0.00;;;;;;;;;;1746058;28;20229;-75
2022/05/24 01:45:19;;;;;;;0.00;0.00;;;;;;;;;;1743997;28;20411;-75
2022/05/24 01:46:13;;;;;;;0.00;0.00;;;;;;;;;;1745332;28;20214;-75
2022/05/24 01:47:05;;;;;;;0.00;0.00;;;;;;;;;;1747873;28;20206;-75
2022/05/24 01:47:59;;;;;;;0.00;0.00;;;;;;;;;;1746593;28;20285;-75
2022/05/24 01:48:52;;;;;;;0.00;0.00;;;;;;;;;;1745630;28;20518;-75
2022/05/24 01:49:48;;;;;;;0.00;0.00;;;;;;;;;;1747500;28;20226;-76
2022/05/24 01:50:40;;;;;;;0.00;0.00;;;;;;;;;;1740464;28;20235;-76
2022/05/24 01:51:34;;;;;;;0.00;0.00;;;;;;;;;;1747453;28;20249;-75
2022/05/24 01:52:27;;;;;;;0.00;0.00;;;;;;;;;;1746526;28;20499;-75
2022/05/24 01:53:22;;;;;;;0.00;0.00;;;;;;;;;;1747624;28;20202;-75
2022/05/24 01:54:19;;;;;;;0.00;0.00;;;;;;;;;;1740526;28;20199;-75
2022/05/24 01:55:15;;;;;;;0.00;0.00;;;;;;;;;;1745286;28;20248;-75
2022/05/24 01:56:08;;;;;;;0.00;0.00;;;;;;;;;;1741926;28;20702;-75
2022/05/24 01:57:03;;;;;;;0.00;0.00;;;;;;;;;;1745400;28;20206;-75
2022/05/24 01:57:56;;;;;;;0.00;0.00;;;;;;;;;;1744682;28;20217;-75
2022/05/24 01:58:51;;;;;;;0.00;0.00;;;;;;;;;;1746259;28;20558;-75
2022/05/24 01:59:43;;;;;;;0.00;0.00;;;;;;;;;;1747303;28;20210;-75
2022/05/24 02:00:35;;;;;;;0.00;0.00;;;;;;;;;;1744533;28;20237;-75
2022/05/24 02:01:31;;;;;;;0.00;0.00;;;;;;;;;;1745524;28;20241;-75
2022/05/24 02:02:24;;;;;;;0.00;0.00;;;;;;;;;;1746123;28;20202;-75
2022/05/24 02:03:15;;;;;;;0.00;0.00;;;;;;;;;;1745347;28;20226;-75
2022/05/24 02:04:08;;;;;;;0.00;0.00;;;;;;;;;;1745965;28;20198;-75
2022/05/24 02:04:59;;;;;;;0.00;0.00;;;;;;;;;;1749103;28;20527;-75
2022/05/24 02:05:51;;;;;;;0.00;0.00;;;;;;;;;;1738360;28;20915;-75
2022/05/24 02:06:43;;;;;;;0.00;0.00;;;;;;;;;;1746302;28;20287;-75
2022/05/24 02:07:35;;;;;;;0.10;0.10;;;;;;;;;;1745840;28;20256;-75
2022/05/24 02:08:26;;;;;;;0.00;0.00;;;;;;;;;;1745103;28;20210;-75
2022/05/24 02:09:18;;;;;;;0.00;0.00;;;;;;;;;;1745661;28;20675;-75
2022/05/24 02:10:10;;;;;;;0.00;0.00;;;;;;;;;;1746371;28;20198;-75
2022/05/24 02:11:04;;;;;;;0.00;0.00;;;;;;;;;;1744218;28;20236;-75
2022/05/24 02:11:56;;;;;;;0.00;0.00;;;;;;;;;;1745491;28;20541;-74
2022/05/24 02:12:51;;;;;;;0.00;0.00;;;;;;;;;;1747650;28;20304;-74
2022/05/24 02:13:44;;;;;;;0.00;0.00;;;;;;;;;;1746115;28;20206;-74
2022/05/24 02:14:37;;;;;;;0.00;0.00;;;;;;;;;;1745235;28;20214;-75
2022/05/24 02:15:34;;;;;;;0.00;0.00;;;;;;;;;;1743790;28;20202;-75
2022/05/24 02:16:28;;;;;;;0.00;0.00;;;;;;;;;;1746340;28;20202;-75
2022/05/24 02:17:20;;;;;;;0.00;0.00;;;;;;;;;;1747346;28;20202;-75
2022/05/24 02:18:15;;;;;;;0.00;0.00;;;;;;;;;;1745299;28;20206;-75
2022/05/24 02:19:08;;;;;;;0.00;0.00;;;;;;;;;;1745801;28;20213;-75
2022/05/24 02:20:02;;;;;;;0.00;0.00;;;;;;;;;;1745551;28;20198;-75
2022/05/24 02:20:53;;;;;;;0.00;0.00;;;;;;;;;;1739435;28;20256;-75
2022/05/24 02:21:47;;;;;;;0.00;0.00;;;;;;;;;;1747129;28;20256;-75
2022/05/24 02:22:39;;;;;;;0.00;0.00;;;;;;;;;;1745282;28;20623;-75
2022/05/24 02:23:31;;;;;;;0.00;0.00;;;;;;;;;;1745618;28;20198;-74
2022/05/24 02:24:23;;;;;;;0.00;0.00;;;;;;;;;;1745916;28;20217;-74
2022/05/24 02:25:20;;;;;;;0.00;0.00;;;;;;;;;;1743684;28;20445;-74
2022/05/24 02:26:12;;;;;;;0.00;0.00;;;;;;;;;;1745555;28;20261;-74
2022/05/24 02:27:05;;;;;;;0.00;0.00;;;;;;;;;;1745535;28;20202;-74
2022/05/24 02:27:57;;;;;;;0.00;0.00;;;;;;;;;;1744626;28;20194;-74
2022/05/24 02:28:51;;;;;;;0.00;0.00;;;;;;;;;;1745344;28;20232;-75
2022/05/24 02:29:42;;;;;;;0.00;0.00;;;;;;;;;;1745433;28;20309;-75
2022/05/24 02:30:34;;;;;;;0.00;0.00;;;;;;;;;;1744234;28;20241;-75
2022/05/24 02:31:26;;;;;;;0.00;0.00;;;;;;;;;;1744856;28;20213;-75
2022/05/24 02:32:18;;;;;;;0.00;0.00;;;;;;;;;;1746057;28;20264;-75
2022/05/24 02:33:10;;;;;;;0.00;0.00;;;;;;;;;;1746137;28;20226;-75
2022/05/24 02:34:02;;;;;;;0.00;0.00;;;;;;;;;;1746526;28;20202;-75
2022/05/24 02:34:53;;;;;;;0.00;0.00;;;;;;;;;;1747050;28;20202;-75
2022/05/24 02:35:45;;;;;;;0.00;0.00;;;;;;;;;;1744434;28;20694;-75
2022/05/24 02:36:37;;;;;;;0.00;0.00;;;;;;;;;;1744921;28;20550;-75
2022/05/24 02:37:29;;;;;;;0.00;0.00;;;;;;;;;;1746018;28;20202;-75
2022/05/24 02:38:20;;;;;;;0.00;0.00;;;;;;;;;;1746279;28;20206;-75
2022/05/24 02:39:13;;;;;;;0.00;0.00;;;;;;;;;;1739934;28;20556;-75
2022/05/24 02:41:31;;;;;;;0.00;0.00;;;;;;;;;;1735583;28;20799;-74
2022/05/24 02:42:22;;;;;;;0.00;0.00;;;;;;;;;;1737559;28;20210;-74
2022/05/24 02:43:14;;;;;;;0.00;0.00;;;;;;;;;;1734310;28;20687;-74
2022/05/24 02:44:08;;;;;;;0.00;0.00;;;;;;;;;;1738449;28;20203;-74
2022/05/24 02:45:00;;;;;;;0.00;0.00;;;;;;;;;;1735443;28;20210;-74
2022/05/24 02:45:52;;;;;;;0.00;0.00;;;;;;;;;;1730166;28;20527;-74
2022/05/24 02:46:44;;;;;;;0.00;0.00;;;;;;;;;;1735121;28;20218;-74
2022/05/24 02:47:36;;;;;;;0.00;0.00;;;;;;;;;;1737449;28;20206;-75
2022/05/24 02:48:28;;;;;;;0.00;0.00;;;;;;;;;;1732710;28;20204;-75
2022/05/24 02:49:20;;;;;;;0.00;0.00;;;;;;;;;;1736549;28;20568;-75
2022/05/24 02:50:12;;;;;;;0.00;0.00;;;;;;;;;;1734987;28;20562;-75
2022/05/24 02:51:09;;;;;;;0.00;0.00;;;;;;;;;;1735879;28;20231;-75
2022/05/24 02:52:00;;;;;;;0.00;0.00;;;;;;;;;;1737012;28;20214;-75
2022/05/24 02:52:52;;;;;;;0.00;0.00;;;;;;;;;;1735326;28;20661;-75
2022/05/24 02:53:45;;;;;;;0.00;0.00;;;;;;;;;;1735175;28;20211;-75
2022/05/24 02:54:38;;;;;;;0.00;0.00;;;;;;;;;;1736725;28;20631;-75
2022/05/24 02:55:30;;;;;;;0.00;0.00;;;;;;;;;;1736427;28;20211;-75
2022/05/24 02:56:22;;;;;;;0.00;0.00;;;;;;;;;;1733856;28;20217;-74
2022/05/24 02:57:13;;;;;;;0.00;0.00;;;;;;;;;;1738704;28;20199;-74
2022/05/24 02:58:05;;;;;;;0.00;0.00;;;;;;;;;;1733650;28;20215;-74
2022/05/24 02:58:58;;;;;;;0.00;0.00;;;;;;;;;;1738357;28;20211;-74
2022/05/24 02:59:50;;;;;;;0.00;0.00;;;;;;;;;;1734436;28;20306;-74
2022/05/24 03:00:42;;;;;;;0.00;0.00;;;;;;;;;;1737191;28;20235;-74
2022/05/24 03:01:34;;;;;;;0.00;0.00;;;;;;;;;;1734986;28;20207;-74
2022/05/24 03:02:25;;;;;;;0.00;0.00;;;;;;;;;;1738737;28;20207;-74
2022/05/24 03:03:18;;;;;;;0.00;0.00;;;;;;;;;;1735546;28;20198;-74
2022/05/24 03:04:09;;;;;;;0.00;0.00;;;;;;;;;;1738166;28;20203;-74
2022/05/24 03:05:01;;;;;;;0.00;0.00;;;;;;;;;;1734868;28;20195;-74
2022/05/24 03:05:52;;;;;;;0.00;0.00;;;;;;;;;;1737607;28;20695;-74
2022/05/24 03:10:14;;;;;;;0.00;0.00;;;;;;;;;;1733961;28;20250;-74
2022/05/24 03:11:09;;;;;;;0.00;0.00;;;;;;;;;;1736859;28;20246;-74
2022/05/24 03:14:23;;;;;;;0.00;0.00;;;;;;;;;;1732058;28;20183;-74
2022/05/24 03:15:15;;;;;;;0.00;0.00;;;;;;;;;;1735332;28;20226;-74
2022/05/24 03:16:10;;;;;;;0.00;0.00;;;;;;;;;;1735836;28;20231;-74
2022/05/24 03:17:02;;;;;;;0.00;0.00;;;;;;;;;;1735370;28;20664;-74
2022/05/24 03:17:54;;;;;;;0.00;0.00;;;;;;;;;;1736728;28;20344;-74
2022/05/24 03:18:46;;;;;;;0.00;0.00;;;;;;;;;;1735180;28;20199;-75
2022/05/24 03:19:37;;;;;;;0.00;0.00;;;;;;;;;;1734857;28;20203;-75
2022/05/24 03:20:33;;;;;;;0.00;0.00;;;;;;;;;;1736823;28;20687;-75
2022/05/24 03:21:24;;;;;;;0.00;0.00;;;;;;;;;;1734051;28;20207;-75
2022/05/24 03:22:16;;;;;;;0.00;0.00;;;;;;;;;;1738761;28;20195;-75
2022/05/24 03:23:07;;;;;;;0.00;0.00;;;;;;;;;;1733427;28;20226;-75
2022/05/24 03:24:00;;;;;;;0.00;0.00;;;;;;;;;;1739029;28;20695;-75
2022/05/24 03:24:51;;;;;;;0.00;0.00;;;;;;;;;;1733786;28;20283;-75
2022/05/24 03:25:44;;;;;;;0.00;0.00;;;;;;;;;;1737458;28;20518;-75
2022/05/24 03:26:35;;;;;;;0.00;0.00;;;;;;;;;;1734591;28;20232;-75
2022/05/24 03:27:27;;;;;;;0.00;0.00;;;;;;;;;;1737899;28;20297;-75
2022/05/24 03:28:19;;;;;;;0.00;0.00;;;;;;;;;;1734251;28;20206;-75
2022/05/24 03:29:11;;;;;;;0.00;0.00;;;;;;;;;;1737264;28;20191;-75
2022/05/24 03:30:08;;;;;;;0.00;0.00;;;;;;;;;;1735545;28;20210;-75
2022/05/24 03:31:03;;;;;;;0.00;0.00;;;;;;;;;;1735267;28;20740;-75
2022/05/24 03:31:54;;;;;;;0.00;0.00;;;;;;;;;;1738245;28;20206;-75
2022/05/24 03:32:47;;;;;;;0.00;0.00;;;;;;;;;;1737250;28;20230;-75
2022/05/24 03:33:38;;;;;;;0.00;0.00;;;;;;;;;;1738133;28;20203;-75
2022/05/24 03:34:30;;;;;;;0.00;0.00;;;;;;;;;;1740704;28;20213;-75
2022/05/24 03:35:21;;;;;;;0.00;0.00;;;;;;;;;;1736004;28;20225;-75
2022/05/24 03:36:13;;;;;;;0.00;0.00;;;;;;;;;;1738812;28;20214;-75
2022/05/24 03:37:05;;;;;;;0.00;0.00;;;;;;;;;;1736383;28;20213;-75
2022/05/24 03:37:57;;;;;;;0.00;0.00;;;;;;;;;;1738575;28;20269;-75
2022/05/24 03:38:48;;;;;;;0.00;0.00;;;;;;;;;;1737791;28;20207;-75
2022/05/24 03:39:41;;;;;;;0.00;0.00;;;;;;;;;;1739362;28;20660;-75
2022/05/24 03:40:32;;;;;;;0.00;0.00;;;;;;;;;;1737214;28;20711;-74
2022/05/24 03:41:24;;;;;;;0.00;0.00;;;;;;;;;;1746175;28;20194;-74
2022/05/24 03:42:16;;;;;;;0.00;0.00;;;;;;;;;;1749019;28;20202;-74
2022/05/24 03:43:11;;;;;;;0.00;0.00;;;;;;;;;;1746218;28;20623;-74
2022/05/24 03:44:02;;;;;;;0.00;0.00;;;;;;;;;;1746873;28;20198;-74
2022/05/24 03:44:54;;;;;;;0.00;0.00;;;;;;;;;;1747896;28;20524;-74
2022/05/24 03:45:47;;;;;;;0.00;0.00;;;;;;;;;;1745777;28;20571;-74
2022/05/24 03:46:40;;;;;;;0.00;0.00;;;;;;;;;;1745956;28;20695;-74
2022/05/24 03:47:31;;;;;;;0.00;0.00;;;;;;;;;;1745879;28;20309;-74
2022/05/24 03:48:23;;;;;;;0.00;0.00;;;;;;;;;;1743698;28;20662;-74
2022/05/24 03:49:14;;;;;;;0.00;0.00;;;;;;;;;;1748580;28;20557;-74
2022/05/24 03:50:07;;;;;;;0.00;0.00;;;;;;;;;;1748321;28;20504;-74
2022/05/24 03:50:58;;;;;;;0.00;0.00;;;;;;;;;;1745141;28;20234;-74
2022/05/24 03:51:51;;;;;;;0.03;0.03;;;;;;;;;;1748603;28;20198;-74
2022/05/24 03:52:42;;;;;;;0.00;0.00;;;;;;;;;;1746317;28;20649;-74
2022/05/24 03:53:34;;;;;;;0.00;0.00;;;;;;;;;;1748229;28;20193;-74
2022/05/24 03:54:25;;;;;;;0.00;0.00;;;;;;;;;;1746456;28;20604;-74
2022/05/24 03:55:17;;;;;;;0.00;0.00;;;;;;;;;;1743943;28;20222;-74
2022/05/24 03:56:09;;;;;;;0.00;0.00;;;;;;;;;;1746647;28;20209;-74
2022/05/24 03:58:10;;;;;;;0.00;0.00;;;;;;;;;;1746379;28;20209;-74
2022/05/24 03:59:02;;;;;;;0.00;0.00;;;;;;;;;;1746390;28;20732;-74
2022/05/24 03:59:55;;;;;;;0.00;0.00;;;;;;;;;;1747496;28;20237;-74
2022/05/24 04:00:49;;;;;;;0.00;0.00;;;;;;;;;;1745396;28;20553;-74
2022/05/24 04:01:41;;;;;;;0.00;0.00;;;;;;;;;;1747300;28;20528;-74
2022/05/24 04:02:32;;;;;;;0.00;0.00;;;;;;;;;;1741193;28;20210;-74
2022/05/24 04:03:24;;;;;;;0.00;0.00;;;;;;;;;;1746521;28;20209;-74
2022/05/24 04:04:17;;;;;;;0.00;0.00;;;;;;;;;;1746880;28;20240;-74
2022/05/24 04:05:10;;;;;;;0.00;0.00;;;;;;;;;;1745893;28;20382;-75
2022/05/24 04:06:02;;;;;;;0.00;0.00;;;;;;;;;;1744835;28;20233;-75
2022/05/24 04:06:54;;;;;;;0.00;0.00;;;;;;;;;;1745889;28;20229;-75
2022/05/24 04:07:46;;;;;;;0.00;0.00;;;;;;;;;;1746364;28;20293;-74
2022/05/24 04:08:38;;;;;;;0.00;0.00;;;;;;;;;;1746357;28;20698;-74
2022/05/24 04:09:32;;;;;;;0.00;0.00;;;;;;;;;;1746490;28;20229;-75
2022/05/24 04:10:23;;;;;;;0.00;0.00;;;;;;;;;;1747032;28;20210;-74
2022/05/24 04:11:15;;;;;;;0.00;0.00;;;;;;;;;;1746159;28;20194;-74
2022/05/24 04:12:08;;;;;;;0.00;0.00;;;;;;;;;;1745775;28;20713;-74
2022/05/24 04:13:01;;;;;;;0.00;0.00;;;;;;;;;;1746267;28;20289;-74
2022/05/24 04:13:52;;;;;;;0.00;0.00;;;;;;;;;;1746601;28;20430;-74
2022/05/24 04:14:44;;;;;;;0.00;0.00;;;;;;;;;;1746386;28;20213;-74
2022/05/24 04:15:35;;;;;;;0.00;0.00;;;;;;;;;;1745265;28;20253;-74
2022/05/24 04:16:29;;;;;;;0.00;0.00;;;;;;;;;;1746701;28;20545;-74
2022/05/24 04:17:20;;;;;;;0.00;0.00;;;;;;;;;;1747445;28;20214;-74
2022/05/24 04:18:12;;;;;;;0.00;0.00;;;;;;;;;;1745356;28;20309;-74
2022/05/24 04:19:04;;;;;;;0.00;0.00;;;;;;;;;;1746663;28;20541;-74
2022/05/24 04:19:56;;;;;;;0.00;0.00;;;;;;;;;;1746032;28;20198;-74
2022/05/24 04:20:48;;;;;;;0.00;0.00;;;;;;;;;;1745294;28;20234;-74
2022/05/24 04:21:40;;;;;;;0.00;0.00;;;;;;;;;;1747432;28;20450;-74
2022/05/24 04:22:31;;;;;;;0.00;0.00;;;;;;;;;;1743954;28;20209;-74
2022/05/24 04:23:25;;;;;;;0.00;0.00;;;;;;;;;;1746882;28;20253;-74
2022/05/24 04:24:16;;;;;;;0.00;0.00;;;;;;;;;;1745829;28;20225;-74
2022/05/24 04:25:09;;;;;;;0.10;0.10;;;;;;;;;;1745958;28;20198;-74
2022/05/24 04:26:05;;;;;;;0.00;0.00;;;;;;;;;;1745013;28;20537;-74
2022/05/24 04:26:56;;;;;;;0.00;0.00;;;;;;;;;;1745813;28;20210;-74
2022/05/24 04:27:48;;;;;;;0.00;0.00;;;;;;;;;;1745807;28;20289;-74
2022/05/24 04:28:39;;;;;;;0.00;0.00;;;;;;;;;;1746503;28;20202;-74
2022/05/24 04:29:33;;;;;;;0.00;0.00;;;;;;;;;;1745889;28;20221;-74
2022/05/24 04:30:24;;;;;;;0.00;0.00;;;;;;;;;;1743401;28;20213;-74
2022/05/24 04:31:16;;;;;;;0.00;0.00;;;;;;;;;;1746560;28;20186;-74
2022/05/24 04:32:10;;;;;;;0.00;0.00;;;;;;;;;;1747342;28;20785;-74
2022/05/24 04:33:02;;;;;;;0.00;0.00;;;;;;;;;;1746367;28;20198;-74
2022/05/24 04:33:53;;;;;;;0.00;0.00;;;;;;;;;;1746236;28;20547;-74
2022/05/24 04:34:45;;;;;;;0.00;0.00;;;;;;;;;;1748112;28;20206;-74
2022/05/24 04:35:37;;;;;;;0.03;0.03;;;;;;;;;;1746987;28;20545;-74
2022/05/24 04:36:29;;;;;;;0.00;0.00;;;;;;;;;;1745028;28;20205;-74
2022/05/24 04:37:20;;;;;;;0.00;0.00;;;;;;;;;;1746474;28;20206;-74
2022/05/24 04:38:12;;;;;;;0.00;0.00;;;;;;;;;;1748328;28;20548;-74
2022/05/24 04:39:03;;;;;;;0.00;0.00;;;;;;;;;;1747887;28;20321;-74
2022/05/24 04:39:56;;;;;;;0.00;0.00;;;;;;;;;;1747279;28;20198;-74
2022/05/24 04:43:06;;;;;;;0.00;0.00;;;;;;;;;;1745833;28;20816;-75
2022/05/24 04:43:58;;;;;;;0.00;0.00;;;;;;;;;;1746722;28;20252;-75
2022/05/24 04:44:50;;;;;;;0.10;0.10;;;;;;;;;;1744759;28;20586;-75
2022/05/24 04:45:42;;;;;;;0.00;0.00;;;;;;;;;;1745368;28;20483;-75
2022/05/24 04:47:43;;;;;;;0.00;0.00;;;;;;;;;;1741680;28;20222;-75
2022/05/24 04:48:34;;;;;;;0.00;0.00;;;;;;;;;;1744828;28;20217;-75
2022/05/24 04:49:25;;;;;;;0.00;0.00;;;;;;;;;;1748459;28;20322;-75
2022/05/24 04:50:17;;;;;;;0.00;0.00;;;;;;;;;;1744069;28;20659;-75
2022/05/24 04:51:08;;;;;;;0.00;0.00;;;;;;;;;;1746447;28;20261;-75
2022/05/24 04:52:00;;;;;;;0.00;0.00;;;;;;;;;;1746274;28;20764;-75
2022/05/24 04:52:52;;;;;;;0.00;0.00;;;;;;;;;;1745879;28;20525;-75
2022/05/24 04:53:43;;;;;;;0.00;0.00;;;;;;;;;;1748536;28;20207;-75
2022/05/24 04:54:35;;;;;;;0.00;0.00;;;;;;;;;;1745376;28;20221;-75
2022/05/24 04:55:28;;;;;;;0.00;0.00;;;;;;;;;;1744551;28;20285;-75
2022/05/24 04:56:20;;;;;;;0.00;0.00;;;;;;;;;;1746093;28;20293;-75
2022/05/24 04:57:11;;;;;;;0.00;0.00;;;;;;;;;;1746222;28;20452;-75
2022/05/24 04:58:04;;;;;;;0.00;0.00;;;;;;;;;;1746158;28;20341;-75
2022/05/24 04:58:55;;;;;;;0.00;0.00;;;;;;;;;;1744438;28;20209;-75
2022/05/24 04:59:47;;;;;;;0.00;0.00;;;;;;;;;;1748797;28;20198;-75
2022/05/24 05:00:38;;;;;;;0.00;0.00;;;;;;;;;;1744378;28;20237;-75
2022/05/24 05:01:30;;;;;;;0.00;0.00;;;;;;;;;;1745700;28;20655;-75
2022/05/24 05:02:22;;;;;;;0.00;0.00;;;;;;;;;;1747129;28;20240;-75
2022/05/24 05:03:17;;;;;;;0.00;0.00;;;;;;;;;;1745741;28;20202;-75
2022/05/24 05:04:09;;;;;;;0.00;0.00;;;;;;;;;;1746343;28;20532;-75
2022/05/24 05:05:01;;;;;;;0.00;0.00;;;;;;;;;;1745995;28;20682;-75
2022/05/24 05:05:52;;;;;;;0.00;0.00;;;;;;;;;;1746017;28;20230;-75
2022/05/24 05:06:45;;;;;;;0.00;0.00;;;;;;;;;;1746939;28;20206;-75
2022/05/24 05:07:37;;;;;;;0.00;0.00;;;;;;;;;;1745475;28;20209;-75
2022/05/24 05:08:29;;;;;;;0.00;0.00;;;;;;;;;;1745598;28;20213;-75
2022/05/24 05:09:21;;;;;;;0.00;0.00;;;;;;;;;;1745738;28;20198;-75
2022/05/24 05:10:13;;;;;;;0.00;0.00;;;;;;;;;;1744556;28;20532;-75
2022/05/24 05:11:05;;;;;;;0.00;0.00;;;;;;;;;;1745882;28;20230;-75
2022/05/24 05:11:56;;;;;;;0.00;0.00;;;;;;;;;;1745784;28;20202;-74
2022/05/24 05:12:49;;;;;;;0.00;0.00;;;;;;;;;;1745360;28;20722;-74
2022/05/24 05:13:41;;;;;;;0.00;0.00;;;;;;;;;;1747607;28;20266;-74
2022/05/24 05:14:33;;;;;;;0.00;0.00;;;;;;;;;;1745984;28;20221;-74
2022/05/24 05:15:25;;;;;;;0.00;0.00;;;;;;;;;;1746522;28;20210;-74
2022/05/24 05:16:17;;;;;;;0.00;0.00;;;;;;;;;;1748204;28;20232;-74
2022/05/24 05:17:08;;;;;;;0.00;0.00;;;;;;;;;;1748550;28;20202;-74
2022/05/24 05:18:03;;;;;;;0.00;0.00;;;;;;;;;;1745724;28;20214;-74
2022/05/24 05:18:56;;;;;;;0.00;0.00;;;;;;;;;;1743532;28;20726;-74
2022/05/24 05:19:49;;;;;;;0.00;0.00;;;;;;;;;;1745575;28;20229;-74
2022/05/24 05:20:41;;;;;;;0.00;0.00;;;;;;;;;;1746238;28;20245;-74
2022/05/24 05:21:34;;;;;;;0.00;0.00;;;;;;;;;;1745546;28;20210;-74
2022/05/24 05:22:25;;;;;;;0.00;0.00;;;;;;;;;;1746540;28;20264;-74
2022/05/24 05:23:18;;;;;;;0.00;0.00;;;;;;;;;;1747465;28;20687;-74
2022/05/24 05:24:09;;;;;;;0.00;0.00;;;;;;;;;;1746478;28;20198;-74
2022/05/24 05:25:01;;;;;;;0.00;0.00;;;;;;;;;;1744807;28;20201;-74
2022/05/24 05:25:52;;;;;;;0.00;0.00;;;;;;;;;;1738440;28;20249;-74
2022/05/24 05:26:43;;;;;;;0.00;0.00;;;;;;;;;;1745798;28;20216;-74
2022/05/24 05:27:36;;;;;;;0.00;0.00;;;;;;;;;;1745986;28;20253;-74
2022/05/24 05:28:27;;;;;;;0.00;0.00;;;;;;;;;;1745587;28;20206;-74
2022/05/24 05:31:16;;;;;;;0.00;0.00;;;;;;;;;;1746392;28;20206;-75
2022/05/24 05:31:41;;;;;;;0.00;0.00;;;;;;;;;;1745019;28;20217;-75
2022/05/24 05:32:32;;;;;;;0.00;0.00;;;;;;;;;;1740152;28;20641;-75
2022/05/24 05:33:24;;;;;;;0.00;0.00;;;;;;;;;;1748369;28;20206;-75
2022/05/24 05:34:18;;;;;;;0.00;0.00;;;;;;;;;;1747456;28;20215;-75
2022/05/24 05:35:09;;;;;;;0.00;0.00;;;;;;;;;;1741030;28;20202;-75
2022/05/24 05:36:02;;;;;;;0.00;0.00;;;;;;;;;;1737468;28;20230;-75
2022/05/24 05:36:53;;;;;;;0.00;0.00;;;;;;;;;;1744595;28;20202;-75